Flight Track Log - Related Links

Times and Time Zones

All times are in EDT time to prevent confusion due to time zone crossing. See the RPA3865 flight status page for this flight to view local times or setup timezone preferences in your user account.

Time Position Orientation Groundspeed Altitude Reporting Facility
EDT Latitude Longitude Course Direction KTS MPH feet Rate Location/Type
Mon 07:58:21 PM 43.9686 -103.0692 186° South 213 245 6,300  Level Denver Center
Mon 07:59:09 PM 43.9228 -103.0825 192° South 222 255 8,400 2,455 Climbing Denver Center
Mon 08:00:11 PM 43.8642 -103.0942 188° South 222 255 10,800 2,323 Climbing Denver Center
Mon 08:01:13 PM 43.7956 -103.1089 189° South 222 255 13,200 1,984 Climbing Denver Center
Mon 08:02:15 PM 43.7453 -103.1197 189° South 226 260 14,900 1,935 Climbing Denver Center
Mon 08:03:17 PM 43.6619 -103.1369 189° South 235 270 17,200 1,548 Climbing Denver Center
Mon 08:04:19 PM 43.5925 -103.1525 189° South 250 288 18,100 1,065 Climbing Denver Center
Mon 08:05:21 PM 43.5303 -103.1625 187° South 268 308 19,400 1,306 Climbing Denver Center
Mon 08:06:23 PM 43.4281 -103.1825 188° South 286 329 20,800 1,452 Climbing Denver Center
Mon 08:07:25 PM 43.3389 -103.2000 188° South 289 333 22,400 1,306 Climbing Denver Center
Mon 08:08:27 PM 43.2617 -103.2147 188° South 289 333 23,500 774 Climbing Denver Center
Mon 08:09:29 PM 43.1692 -103.2333 188° South 302 348 24,000 242 Climbing Denver Center
Mon 08:10:31 PM 43.0808 -103.2478 187° South 332 382 24,000  Level Denver Center
Mon 08:11:33 PM 42.9869 -103.2311 173° South 355 409 24,000  Level Denver Center
Mon 08:12:35 PM 42.8736 -103.2144 174° South 363 418 24,000  Level Denver Center
Mon 08:13:50 PM 42.7425 -103.2006 176° South 369 425 24,000  Level Denver Center
Mon 08:14:51 PM 42.6428 -103.1939 177° South 372 428 24,000  Level Denver Center
Mon 08:15:53 PM 42.5258 -103.1867 177° South 376 433 24,000  Level Denver Center
Mon 08:16:55 PM 42.4300 -103.2097 190° South 368 423 24,000  Level Denver Center
Mon 08:17:57 PM 42.3381 -103.2494 198° South 362 417 24,000  Level Denver Center
Mon 08:18:59 PM 42.2336 -103.3033 201° Southwest 358 412 24,000  Level Denver Center
Mon 08:20:01 PM 42.1450 -103.3503 201° Southwest 357 411 24,000  Level Denver Center
Mon 08:21:03 PM 42.0425 -103.4047 202° Southwest 355 409 24,000  Level Denver Center
Mon 08:22:17 PM 41.9547 -103.4497 201° Southwest 352 405 24,000  Level Denver Center
Mon 08:23:20 PM 41.8314 -103.4922 194° South 367 422 24,000  Level Denver Center
Mon 08:24:34 PM 41.7375 -103.5036 185° South 356 410 24,000  Level Denver Center
Mon 08:25:36 PM 41.6092 -103.5236 187° South 363 418 24,000  Level Denver Center
Mon 08:26:38 PM 41.4969 -103.5411 187° South 363 418 24,000 -145 Level Denver Center
Mon 08:27:40 PM 41.4011 -103.5547 186° South 362 417 23,700 -919 Descending Denver Center
Mon 08:28:42 PM 41.2856 -103.5719 186° South 372 428 22,100 -1,548 Descending Denver Center
Mon 08:29:44 PM 41.1872 -103.5858 186° South 371 427 20,500 -1,597 Descending Denver Center
Mon 08:30:46 PM 41.0719 -103.6008 186° South 372 428 18,800 -1,403 Descending Denver Center
Mon 08:31:48 PM 40.9789 -103.6164 187° South 376 433 17,600 -1,306 Descending Denver Center
Mon 08:32:50 PM 40.8736 -103.6322 186° South 380 437 16,100 -726 Descending Denver Center
Mon 08:33:52 PM 40.7914 -103.6419 185° South 373 429 16,100  Level Denver Center
Mon 08:34:54 PM 40.6517 -103.6631 187° South 360 414 16,100  Level Denver Center
Mon 08:35:56 PM 40.5653 -103.7178 206° Southwest 354 407 16,100 -528 Level Denver Center
Mon 08:36:59 PM 40.4981 -103.8094 226° Southwest 349 402 15,000 -1,355 Descending Denver Center
Mon 08:38:00 PM 40.4297 -103.9072 227° Southwest 345 397 13,300 -976 Descending Denver Center
Mon 08:39:02 PM 40.3708 -103.9858 225° Southwest 305 351 13,000 -97 Descending Denver Center
Mon 08:40:04 PM 40.3444 -104.0922 252° West 290 334 13,100 -194 Climbing Denver Center
Mon 08:41:06 PM 40.3244 -104.1953 256° West 294 338 12,600 -968 Descending Denver Center
Mon 08:42:08 PM 40.3047 -104.3044 257° West 289 333 11,100 -726 Descending Denver Center
Mon 08:43:10 PM 40.2889 -104.3992 258° West 271 312 11,100 -48 Level Denver Center
Mon 08:44:12 PM 40.2703 -104.4925 255° West 252 290 11,000 -726 Descending Denver Center
Mon 08:45:14 PM 40.2167 -104.5500 219° Southwest 249 287 9,600 -968 Descending Denver Center
Mon 08:46:16 PM 40.1547 -104.6128 218° Southwest 261 300 9,000 -339 Descending Denver Center
Mon 08:47:18 PM 40.1000 -104.6667 217° Southwest 249 287 8,900 -581 Descending Denver Center
Mon 08:48:20 PM 40.0294 -104.6850 191° South 248 285 7,800 -1,113 Descending Denver Center
Mon 08:49:22 PM 39.9647 -104.6858 181° South 232 267 6,600 -968 Descending Denver Center
Mon 08:50:24 PM 39.9181 -104.6867 181° South 164 189 5,800 -581 Descending Denver Center
Mon 08:51:26 PM 39.8839 -104.6869 180° South 136 157 5,400 -387 Descending Denver Center
Mon 08:54:00 PM 39.8617 -104.6732 237° Southwest  Level Estimated
Mon 09:01:00 PM 39.8617 -104.6732 237° Southwest  Level Estimated

Login

Don't have an account? Register now (free) for customized features, flight alerts, and more!